Main page
METAR-TAF:

METAR-TAF

Airports :

Kuwait International Airport

Kuwait City, Kuwait

latitude: 29-13N, longitude: 047-59E, elevation: 55 m

Current weather observation

The report was made 1 hour and 1 minutes ago, at 08:00 UTC
Wind 15 kt from the North
Temperature 22°C
Humidity 57%
Pressure 1021 hPa
Visibility 10 km or more
no clouds below 1500 m and no cumulonimbus

METAR: OKBK 180800Z 35015KT CAVOK 22/13 Q1021 NOSIG

Time: 12:01 (09:01 UTC)

Forecast

The report was made 4 hours and 16 minutes ago, at 04:45 UTC
Forecast valid from 18 at 06 UTC to 19 at 12 UTC
Wind 10 kt from the Northwest with gusts up to 20 kt
Visibility: 7000 m
Clear sky

TAF: OKBK 180445Z 1806/1912 32010G20KT 7000 SKC

Weather observations and forecasts of more than 4000 airports (METAR and TAF reports).

The available stations are represented by yellow and red dots on the map.

Hover mouse over dot to see the name of the station.

Then click to see weather observations and forecasts.

To change the map : click on the green buttons with a black cross to zoom in, on the green button with a dash to zoom out, or on the green arrows for adjacent maps.


METAR-TAF: